createdAt,value
2018-08-31T00:02:17.072Z,45.70
2018-08-31T00:04:50.306Z,45.60
2018-08-31T00:07:24.153Z,45.70
2018-08-31T00:09:57.297Z,45.70
2018-08-31T00:12:30.387Z,45.70
2018-08-31T00:14:57.858Z,45.70
2018-08-31T00:17:25.355Z,45.70
2018-08-31T00:19:52.836Z,45.70
2018-08-31T00:22:20.322Z,45.70
2018-08-31T00:24:54.203Z,45.70
2018-08-31T00:27:27.210Z,45.60
2018-08-31T00:30:04.175Z,45.60
2018-08-31T00:33:03.019Z,45.60
2018-08-31T00:35:35.863Z,45.60
2018-08-31T00:38:08.954Z,45.60
2018-08-31T00:40:50.919Z,45.70
2018-08-31T00:43:27.793Z,45.90
2018-08-31T00:45:55.272Z,45.60
2018-08-31T00:48:22.750Z,45.60
2018-08-31T00:50:50.226Z,45.50
2018-08-31T00:53:17.721Z,45.60
2018-08-31T00:55:45.206Z,45.50
2018-08-31T00:58:12.701Z,45.60
2018-08-31T01:00:40.177Z,45.60
2018-08-31T01:03:07.654Z,45.60
2018-08-31T01:05:35.146Z,45.60
2018-08-31T01:08:02.635Z,45.50
2018-08-31T01:10:30.173Z,45.60
2018-08-31T01:12:57.683Z,45.40
2018-08-31T01:15:25.188Z,45.50
2018-08-31T01:17:52.664Z,45.40
2018-08-31T01:20:20.149Z,46.10
2018-08-31T01:22:47.641Z,45.50
2018-08-31T01:25:15.138Z,45.50
2018-08-31T01:27:42.626Z,45.50
2018-08-31T01:30:10.443Z,45.60
2018-08-31T01:32:37.918Z,45.40
2018-08-31T01:35:05.618Z,45.40
2018-08-31T01:37:33.119Z,45.40
2018-08-31T01:40:00.590Z,45.40
2018-08-31T01:42:28.062Z,45.40
2018-08-31T01:44:55.541Z,45.40
2018-08-31T01:47:23.015Z,45.40
2018-08-31T01:49:50.498Z,45.40
2018-08-31T01:52:17.995Z,45.40
2018-08-31T01:54:45.486Z,45.40
2018-08-31T01:57:12.978Z,45.40
2018-08-31T01:59:40.683Z,45.40
2018-08-31T02:02:08.178Z,45.30
2018-08-31T02:04:35.666Z,45.30
2018-08-31T02:07:03.209Z,45.40
2018-08-31T02:09:30.705Z,45.30
2018-08-31T02:11:58.210Z,45.30
2018-08-31T02:14:25.698Z,45.80
2018-08-31T02:16:53.199Z,45.20
2018-08-31T02:19:20.687Z,45.20
2018-08-31T02:21:57.964Z,45.20
2018-08-31T02:24:25.455Z,45.40
2018-08-31T02:26:52.964Z,45.20
2018-08-31T02:29:20.436Z,45.20
2018-08-31T02:31:47.921Z,45.20
2018-08-31T02:34:15.403Z,45.20
2018-08-31T02:36:42.882Z,45.20
2018-08-31T02:39:10.407Z,45.20
2018-08-31T02:41:37.877Z,45.20
2018-08-31T02:44:05.368Z,45.20
2018-08-31T02:46:32.849Z,45.20
2018-08-31T02:49:00.333Z,45.20
2018-08-31T02:51:27.817Z,45.20
2018-08-31T02:53:55.297Z,45.20
2018-08-31T02:56:22.772Z,45.20
2018-08-31T02:58:50.265Z,45.20
2018-08-31T03:01:17.738Z,45.20
2018-08-31T03:03:45.297Z,45.20
2018-08-31T03:06:12.790Z,45.20
2018-08-31T03:08:40.410Z,45.20
2018-08-31T03:11:07.884Z,45.80
2018-08-31T03:13:35.364Z,45.30
2018-08-31T03:16:02.846Z,45.20
2018-08-31T03:18:30.332Z,45.20
2018-08-31T03:20:57.812Z,45.20
2018-08-31T03:23:25.289Z,45.20
2018-08-31T03:25:52.852Z,45.20
2018-08-31T03:28:20.562Z,45.20
2018-08-31T03:30:49.169Z,45.20
2018-08-31T03:33:17.007Z,45.20
2018-08-31T03:35:44.507Z,45.20
2018-08-31T03:38:12.410Z,45.20
2018-08-31T03:40:40.275Z,45.20
2018-08-31T03:43:07.848Z,45.20
2018-08-31T03:45:35.330Z,45.20
2018-08-31T03:48:02.907Z,45.20
2018-08-31T03:50:30.480Z,45.20
2018-08-31T03:52:59.213Z,45.20
2018-08-31T03:55:26.725Z,45.20
2018-08-31T03:57:54.337Z,45.10
2018-08-31T04:00:21.818Z,45.20
2018-08-31T04:02:49.304Z,45.20
2018-08-31T04:05:16.817Z,45.20
2018-08-31T04:07:44.323Z,45.20
2018-08-31T04:10:11.923Z,45.20
2018-08-31T04:12:39.552Z,45.20
2018-08-31T04:15:07.408Z,45.20
2018-08-31T04:17:34.914Z,45.20
2018-08-31T04:20:02.409Z,45.50
2018-08-31T04:22:30.017Z,45.20
2018-08-31T04:24:57.511Z,45.20
2018-08-31T04:27:24.989Z,45.20
2018-08-31T04:29:52.488Z,45.20
2018-08-31T04:32:20.050Z,45.30
2018-08-31T04:34:47.537Z,45.30
2018-08-31T04:37:15.110Z,45.40
2018-08-31T04:39:42.637Z,45.30
2018-08-31T04:42:10.197Z,45.30
2018-08-31T04:44:37.674Z,45.40
2018-08-31T04:47:05.202Z,45.40
2018-08-31T04:49:32.723Z,45.40
2018-08-31T04:52:00.257Z,45.40
2018-08-31T04:54:27.826Z,45.50
2018-08-31T04:56:55.314Z,45.60
2018-08-31T04:59:22.858Z,45.60
2018-08-31T05:01:50.573Z,45.60
2018-08-31T05:04:18.187Z,45.90
2018-08-31T05:06:45.763Z,45.60
2018-08-31T05:09:13.476Z,45.70
2018-08-31T05:11:41.153Z,45.50
2018-08-31T05:14:08.969Z,45.60
2018-08-31T05:16:36.481Z,45.70
2018-08-31T05:19:04.920Z,45.80
2018-08-31T05:21:32.467Z,46.00
2018-08-31T05:23:59.993Z,46.10
2018-08-31T05:26:27.511Z,46.30
2018-08-31T05:28:55.450Z,46.10
2018-08-31T05:31:22.977Z,46.10
2018-08-31T05:33:50.525Z,46.00
2018-08-31T05:36:18.038Z,46.10
2018-08-31T05:38:45.513Z,46.00
2018-08-31T05:41:13.045Z,46.10
2018-08-31T05:43:40.997Z,46.00
2018-08-31T05:46:08.518Z,46.00
2018-08-31T05:48:36.060Z,46.10
2018-08-31T05:51:04.689Z,46.20
2018-08-31T05:53:32.240Z,46.70
2018-08-31T05:55:59.658Z,46.80
2018-08-31T05:58:27.143Z,47.90
2018-08-31T06:00:54.646Z,47.60
2018-08-31T06:03:22.231Z,48.10
2018-08-31T06:05:49.730Z,48.30
2018-08-31T06:08:17.218Z,47.90
2018-08-31T06:10:44.698Z,47.80
2018-08-31T06:13:12.255Z,48.00
2018-08-31T06:15:39.749Z,48.10
2018-08-31T06:18:07.570Z,48.70
2018-08-31T06:20:35.153Z,48.20
2018-08-31T06:23:02.659Z,48.40
2018-08-31T06:25:30.140Z,48.40
2018-08-31T06:27:57.619Z,48.40
2018-08-31T06:30:25.133Z,48.50
2018-08-31T06:32:52.620Z,48.60
2018-08-31T06:35:20.117Z,48.80
2018-08-31T06:37:47.619Z,48.90
2018-08-31T06:40:15.100Z,49.00
2018-08-31T06:42:42.590Z,49.10
2018-08-31T06:45:10.154Z,49.20
2018-08-31T06:47:38.559Z,49.20
2018-08-31T06:50:06.358Z,49.30
2018-08-31T06:52:33.829Z,49.50
2018-08-31T06:55:01.321Z,49.50
2018-08-31T06:57:28.804Z,49.60
2018-08-31T06:59:56.290Z,49.80
2018-08-31T07:02:24.838Z,49.80
2018-08-31T07:04:52.420Z,49.90
2018-08-31T07:07:19.899Z,49.90
2018-08-31T07:09:47.374Z,50.10
2018-08-31T07:12:14.929Z,50.10
2018-08-31T07:14:42.361Z,50.20
2018-08-31T07:17:09.917Z,50.30
2018-08-31T07:19:37.522Z,50.30
2018-08-31T07:22:04.988Z,50.40
2018-08-31T07:24:32.458Z,50.40
2018-08-31T07:26:59.950Z,50.50
2018-08-31T07:29:27.433Z,50.60
2018-08-31T07:31:54.946Z,50.50
2018-08-31T07:34:22.565Z,50.70
2018-08-31T07:36:50.070Z,50.70
2018-08-31T07:39:17.567Z,50.80
2018-08-31T07:41:45.053Z,50.80
2018-08-31T07:44:12.545Z,50.90
2018-08-31T07:46:40.042Z,51.00
2018-08-31T07:49:07.553Z,51.10
2018-08-31T07:51:35.069Z,51.10
2018-08-31T07:54:02.579Z,51.10
2018-08-31T07:56:30.059Z,51.20
2018-08-31T07:58:57.544Z,51.30
2018-08-31T08:01:25.018Z,52.00
2018-08-31T08:03:52.522Z,51.30
2018-08-31T08:06:19.996Z,51.50
2018-08-31T08:08:47.544Z,51.40
2018-08-31T08:11:15.025Z,51.60
2018-08-31T08:13:42.527Z,51.60
2018-08-31T08:16:10.024Z,51.70
2018-08-31T08:18:37.530Z,51.60
2018-08-31T08:21:05.027Z,52.30
2018-08-31T08:23:32.534Z,51.60
2018-08-31T08:26:00.020Z,51.70
2018-08-31T08:28:27.528Z,51.70
2018-08-31T08:30:55.527Z,51.70
2018-08-31T08:33:23.017Z,51.70
2018-08-31T08:35:50.629Z,51.60
2018-08-31T08:38:18.152Z,51.60
2018-08-31T08:40:45.627Z,51.60
2018-08-31T08:43:13.108Z,51.70
2018-08-31T08:45:40.608Z,51.70
2018-08-31T08:48:08.206Z,51.70
2018-08-31T08:50:35.643Z,51.70
2018-08-31T08:53:03.388Z,51.60
2018-08-31T08:55:30.934Z,51.70
2018-08-31T08:57:58.413Z,51.60
2018-08-31T09:00:25.914Z,51.70
2018-08-31T09:02:53.402Z,51.70
2018-08-31T09:05:20.899Z,51.70
2018-08-31T09:07:48.388Z,51.90
2018-08-31T09:10:15.880Z,51.90
2018-08-31T09:12:43.403Z,52.00
2018-08-31T09:15:11.022Z,52.00
2018-08-31T09:17:38.499Z,52.10
2018-08-31T09:20:06.012Z,52.00
2018-08-31T09:22:33.506Z,52.10
2018-08-31T09:25:01.054Z,52.10
2018-08-31T09:27:31.325Z,52.10
2018-08-31T09:29:58.838Z,52.10
2018-08-31T09:32:29.364Z,52.10
2018-08-31T09:34:57.438Z,52.20
2018-08-31T09:37:24.938Z,52.20
2018-08-31T09:39:52.430Z,52.20
2018-08-31T09:42:19.913Z,52.20
2018-08-31T09:44:47.444Z,52.20
2018-08-31T09:47:15.068Z,52.80
2018-08-31T09:49:43.281Z,52.30
2018-08-31T09:52:10.793Z,52.20
2018-08-31T09:54:38.304Z,52.20
2018-08-31T09:57:05.864Z,52.30
2018-08-31T09:59:33.342Z,52.20
2018-08-31T10:02:05.534Z,52.30
2018-08-31T10:04:33.049Z,52.30
2018-08-31T10:07:00.578Z,52.30
2018-08-31T10:09:28.332Z,52.30
2018-08-31T10:11:55.817Z,52.20
2018-08-31T10:14:23.375Z,52.30
2018-08-31T10:16:51.189Z,52.30
2018-08-31T10:19:18.663Z,52.30
2018-08-31T10:21:46.461Z,52.30
2018-08-31T10:24:14.186Z,52.30
2018-08-31T10:26:41.680Z,52.30
2018-08-31T10:29:09.184Z,52.30
2018-08-31T10:31:36.678Z,52.30
2018-08-31T10:34:04.282Z,52.30
2018-08-31T10:36:31.793Z,52.20
2018-08-31T10:38:59.914Z,52.30
2018-08-31T10:41:27.421Z,52.30
2018-08-31T10:43:54.912Z,52.30
2018-08-31T10:46:22.456Z,52.40
2018-08-31T10:48:50.301Z,52.30
2018-08-31T10:51:17.872Z,52.20
2018-08-31T10:53:45.386Z,52.20
2018-08-31T10:56:12.926Z,52.80
2018-08-31T10:58:40.438Z,52.20
2018-08-31T11:01:07.943Z,52.20
2018-08-31T11:03:35.527Z,52.30
2018-08-31T11:06:02.977Z,52.30
2018-08-31T11:08:30.487Z,52.30
2018-08-31T11:10:57.966Z,52.30
2018-08-31T11:13:25.471Z,52.30
2018-08-31T11:15:53.053Z,52.30
2018-08-31T11:18:20.541Z,52.30
2018-08-31T11:20:48.018Z,52.30
2018-08-31T11:23:15.500Z,52.30
2018-08-31T11:25:42.994Z,52.30
2018-08-31T11:28:10.522Z,52.30
2018-08-31T11:30:38.000Z,52.30
2018-08-31T11:33:05.486Z,52.30
2018-08-31T11:35:32.966Z,52.30
2018-08-31T11:38:00.448Z,52.30
2018-08-31T11:40:27.932Z,52.30
2018-08-31T11:42:55.420Z,52.30
2018-08-31T11:45:22.900Z,52.30
2018-08-31T11:47:50.402Z,52.20
2018-08-31T11:50:17.894Z,52.20
2018-08-31T11:52:45.399Z,52.40
2018-08-31T11:55:12.934Z,52.20
2018-08-31T11:57:40.473Z,52.30
2018-08-31T12:00:07.960Z,52.20
2018-08-31T12:02:35.442Z,52.20
2018-08-31T12:05:02.981Z,52.20
2018-08-31T12:07:30.484Z,52.20
2018-08-31T12:09:57.972Z,52.20
2018-08-31T12:12:25.451Z,52.30
2018-08-31T12:14:52.948Z,52.20
2018-08-31T12:17:20.453Z,52.20
2018-08-31T12:19:47.946Z,52.20
2018-08-31T12:22:15.533Z,52.20
2018-08-31T12:24:43.061Z,52.20
2018-08-31T12:27:10.545Z,52.20
2018-08-31T12:29:38.078Z,52.20
2018-08-31T12:32:05.576Z,52.20
2018-08-31T12:34:33.105Z,52.10
2018-08-31T12:37:00.618Z,52.20
2018-08-31T12:39:28.101Z,52.20
2018-08-31T12:41:55.655Z,52.20
2018-08-31T12:44:23.239Z,52.10
2018-08-31T12:46:50.936Z,52.10
2018-08-31T12:49:18.421Z,52.10
2018-08-31T12:51:46.057Z,52.10
2018-08-31T12:54:13.588Z,52.10
2018-08-31T12:56:41.126Z,52.10
2018-08-31T12:59:08.607Z,52.70
2018-08-31T13:01:36.095Z,52.10
2018-08-31T13:04:03.681Z,52.10
2018-08-31T13:06:31.157Z,52.00
2018-08-31T13:08:58.666Z,52.00
2018-08-31T13:11:26.175Z,52.30
2018-08-31T13:13:53.673Z,52.00
2018-08-31T13:16:21.150Z,52.00
2018-08-31T13:18:48.861Z,52.10
2018-08-31T13:21:16.365Z,52.20
2018-08-31T13:23:43.853Z,52.30
2018-08-31T13:26:11.374Z,52.50
2018-08-31T13:28:38.878Z,52.50
2018-08-31T13:31:06.466Z,52.70
2018-08-31T13:33:33.922Z,52.80
2018-08-31T13:36:01.556Z,52.80
2018-08-31T13:38:28.931Z,52.90
2018-08-31T13:40:56.449Z,52.90
2018-08-31T13:43:23.953Z,53.00
2018-08-31T13:45:51.461Z,53.10
2018-08-31T13:48:18.965Z,53.10
2018-08-31T13:50:46.488Z,53.10
2018-08-31T13:53:13.991Z,53.20
2018-08-31T13:55:41.476Z,53.20
2018-08-31T13:58:09.019Z,53.30
2018-08-31T14:00:36.485Z,53.30
2018-08-31T14:03:03.974Z,53.40
2018-08-31T14:05:31.468Z,53.40
2018-08-31T14:07:58.957Z,53.50
2018-08-31T14:10:26.508Z,53.50
2018-08-31T14:12:54.174Z,53.50
2018-08-31T14:15:21.625Z,53.50
2018-08-31T14:17:49.293Z,53.60
2018-08-31T14:20:16.850Z,53.60
2018-08-31T14:22:44.426Z,53.40
2018-08-31T14:25:11.971Z,53.30
2018-08-31T14:27:39.513Z,53.80
2018-08-31T14:30:07.165Z,53.50
2018-08-31T14:32:34.705Z,53.40
2018-08-31T14:35:02.262Z,53.40
2018-08-31T14:37:30.851Z,53.20
2018-08-31T14:39:58.531Z,53.20
2018-08-31T14:42:27.159Z,53.10
2018-08-31T14:44:54.688Z,53.00
2018-08-31T14:47:22.335Z,52.90
2018-08-31T14:49:50.062Z,52.90
2018-08-31T14:52:17.532Z,52.90
2018-08-31T14:54:45.658Z,52.80
2018-08-31T14:57:13.354Z,52.80
2018-08-31T14:59:41.007Z,52.80
2018-08-31T15:02:08.686Z,52.80
2018-08-31T15:04:36.351Z,52.40
2018-08-31T15:07:04.255Z,52.70
2018-08-31T15:09:31.929Z,52.80
2018-08-31T15:11:59.490Z,52.70
2018-08-31T15:14:27.237Z,52.70
2018-08-31T15:16:54.936Z,52.60
2018-08-31T15:19:22.623Z,52.60
2018-08-31T15:21:50.218Z,52.50
2018-08-31T15:24:17.958Z,52.50
2018-08-31T15:26:45.683Z,52.50
2018-08-31T15:29:13.359Z,52.40
2018-08-31T15:31:41.616Z,52.30
2018-08-31T15:34:09.470Z,52.30
2018-08-31T15:36:37.085Z,52.20
2018-08-31T15:39:06.059Z,52.30
2018-08-31T15:41:33.732Z,52.20
2018-08-31T15:44:01.385Z,52.10
2018-08-31T15:46:29.021Z,52.10
2018-08-31T15:48:56.661Z,52.10
2018-08-31T15:51:24.331Z,52.20
2018-08-31T15:53:51.898Z,52.20
2018-08-31T15:56:19.457Z,52.20
2018-08-31T15:58:47.125Z,52.40
2018-08-31T16:01:14.725Z,52.40
2018-08-31T16:03:42.378Z,52.30
2018-08-31T16:06:09.935Z,52.30
2018-08-31T16:08:37.594Z,52.30
2018-08-31T16:11:05.297Z,52.30
2018-08-31T16:13:32.937Z,52.30
2018-08-31T16:16:00.630Z,52.30
2018-08-31T16:18:28.466Z,52.30
2018-08-31T16:20:56.083Z,52.30
2018-08-31T16:23:23.611Z,52.30
2018-08-31T16:25:51.156Z,52.30
2018-08-31T16:28:18.760Z,52.30
2018-08-31T16:30:46.406Z,52.30
2018-08-31T16:33:13.993Z,52.40
2018-08-31T16:35:41.500Z,52.40
2018-08-31T16:38:09.077Z,52.50
2018-08-31T16:40:36.647Z,52.60
2018-08-31T16:43:04.226Z,52.50
2018-08-31T16:45:31.821Z,52.50
2018-08-31T16:47:59.441Z,52.40
2018-08-31T16:50:27.123Z,52.30
2018-08-31T16:52:54.758Z,52.90
2018-08-31T16:55:22.396Z,52.30
2018-08-31T16:57:50.031Z,52.20
2018-08-31T17:00:17.667Z,52.30
2018-08-31T17:02:45.233Z,52.20
2018-08-31T17:05:12.929Z,52.20
2018-08-31T17:07:40.570Z,52.20
2018-08-31T17:10:08.237Z,52.20
2018-08-31T17:12:35.929Z,52.10
2018-08-31T17:15:03.577Z,52.00
2018-08-31T17:17:31.399Z,52.00
2018-08-31T17:19:59.003Z,52.00
2018-08-31T17:22:26.641Z,52.00
2018-08-31T17:24:54.285Z,52.00
2018-08-31T17:27:27.464Z,51.90
2018-08-31T17:29:55.107Z,51.80
2018-08-31T17:32:28.089Z,51.80
2018-08-31T17:35:01.214Z,51.70
2018-08-31T17:37:30.659Z,51.70
2018-08-31T17:39:58.432Z,51.70
2018-08-31T17:42:26.869Z,51.60
2018-08-31T17:44:54.856Z,51.70
2018-08-31T17:47:22.528Z,51.70
2018-08-31T17:49:50.312Z,51.70
2018-08-31T17:52:17.921Z,51.60
2018-08-31T17:54:45.485Z,51.60
2018-08-31T17:57:13.248Z,51.70
2018-08-31T17:59:40.942Z,51.70
2018-08-31T18:02:09.057Z,51.70
2018-08-31T18:04:36.646Z,51.70
2018-08-31T18:07:04.270Z,51.70
2018-08-31T18:09:32.007Z,51.60
2018-08-31T18:11:59.481Z,51.70
2018-08-31T18:14:27.097Z,51.70
2018-08-31T18:16:54.601Z,51.70
2018-08-31T18:19:22.511Z,51.50
2018-08-31T18:21:50.095Z,51.50
2018-08-31T18:24:17.628Z,51.70
2018-08-31T18:26:45.236Z,51.60
2018-08-31T18:29:12.912Z,51.50
2018-08-31T18:31:40.550Z,51.60
2018-08-31T18:34:08.190Z,51.60
2018-08-31T18:36:35.786Z,51.60
2018-08-31T18:39:04.624Z,51.60
2018-08-31T18:41:32.244Z,51.60
2018-08-31T18:43:59.841Z,51.60
2018-08-31T18:46:27.452Z,51.60
2018-08-31T18:48:55.113Z,51.60
2018-08-31T18:51:22.703Z,51.60
2018-08-31T18:53:50.499Z,51.60
2018-08-31T18:56:18.195Z,51.60
2018-08-31T18:58:46.169Z,51.60
2018-08-31T19:01:13.830Z,51.60
2018-08-31T19:03:41.474Z,51.60
2018-08-31T19:06:09.545Z,51.60
2018-08-31T19:08:37.415Z,51.60
2018-08-31T19:11:05.430Z,51.50
2018-08-31T19:13:33.073Z,51.50
2018-08-31T19:16:00.689Z,51.60
2018-08-31T19:18:28.433Z,51.60
2018-08-31T19:20:56.632Z,51.60
2018-08-31T19:23:24.241Z,51.60
2018-08-31T19:25:51.838Z,51.60
2018-08-31T19:28:19.485Z,51.60
2018-08-31T19:30:47.060Z,51.50
2018-08-31T19:33:14.755Z,51.40
2018-08-31T19:35:42.412Z,51.50
2018-08-31T19:38:10.208Z,51.40
2018-08-31T19:40:37.754Z,51.40
2018-08-31T19:43:05.350Z,51.40
2018-08-31T19:45:32.945Z,51.40
2018-08-31T19:48:00.855Z,51.40
2018-08-31T19:50:28.480Z,51.30
2018-08-31T19:52:56.574Z,51.40
2018-08-31T19:55:24.160Z,51.30
2018-08-31T19:57:52.143Z,51.30
2018-08-31T20:00:19.713Z,51.40
2018-08-31T20:02:47.333Z,51.30
2018-08-31T20:05:15.053Z,51.30
2018-08-31T20:07:42.857Z,51.20
2018-08-31T20:10:10.917Z,51.10
2018-08-31T20:12:38.570Z,51.10
2018-08-31T20:15:06.195Z,51.00
2018-08-31T20:17:33.761Z,51.10
2018-08-31T20:20:01.771Z,51.10
2018-08-31T20:22:29.756Z,51.10
2018-08-31T20:24:57.402Z,51.00
2018-08-31T20:27:24.996Z,51.00
2018-08-31T20:29:52.680Z,51.00
2018-08-31T20:32:20.305Z,51.00
2018-08-31T20:34:47.869Z,50.90
2018-08-31T20:37:15.670Z,50.90
2018-08-31T20:39:43.257Z,50.90
2018-08-31T20:42:10.850Z,50.80
2018-08-31T20:44:38.480Z,50.80
2018-08-31T20:47:06.120Z,50.80
2018-08-31T20:49:33.730Z,50.80
2018-08-31T20:52:01.276Z,50.70
2018-08-31T20:54:28.863Z,50.70
2018-08-31T20:56:56.573Z,50.60
2018-08-31T20:59:24.107Z,50.70
2018-08-31T21:01:51.651Z,50.70
2018-08-31T21:04:19.229Z,50.60
2018-08-31T21:06:46.732Z,50.60
2018-08-31T21:09:14.307Z,50.60
2018-08-31T21:11:41.871Z,50.50
2018-08-31T21:14:09.450Z,50.50
2018-08-31T21:16:37.011Z,50.50
2018-08-31T21:19:04.625Z,50.50
2018-08-31T21:21:32.190Z,50.40
2018-08-31T21:23:59.703Z,50.40
2018-08-31T21:26:27.187Z,50.50
2018-08-31T21:28:54.660Z,50.30
2018-08-31T21:31:22.170Z,50.40
2018-08-31T21:33:49.672Z,50.40
2018-08-31T21:36:17.294Z,50.40
2018-08-31T21:38:44.773Z,50.40
2018-08-31T21:41:12.255Z,50.30
2018-08-31T21:43:39.742Z,50.30
2018-08-31T21:46:07.225Z,50.20
2018-08-31T21:48:34.727Z,50.20
2018-08-31T21:51:02.247Z,50.10
2018-08-31T21:53:29.737Z,50.10
2018-08-31T21:55:57.228Z,50.10
2018-08-31T21:58:24.718Z,50.00
2018-08-31T22:00:56.613Z,50.20
2018-08-31T22:03:24.111Z,50.10
2018-08-31T22:05:51.615Z,50.00
2018-08-31T22:08:19.148Z,50.00
2018-08-31T22:10:46.615Z,49.90
2018-08-31T22:13:14.098Z,49.90
2018-08-31T22:15:41.575Z,49.80
2018-08-31T22:18:09.054Z,49.90
2018-08-31T22:20:36.557Z,49.80
2018-08-31T22:23:04.036Z,49.70
2018-08-31T22:25:31.527Z,49.70
2018-08-31T22:27:59.006Z,49.70
2018-08-31T22:30:26.516Z,49.60
2018-08-31T22:32:54.000Z,49.60
2018-08-31T22:35:21.474Z,49.60
2018-08-31T22:37:48.945Z,49.60
2018-08-31T22:40:16.442Z,49.60
2018-08-31T22:42:43.939Z,49.60
2018-08-31T22:45:15.382Z,49.60
2018-08-31T22:47:43.540Z,49.50
2018-08-31T22:50:11.478Z,49.40
2018-08-31T22:52:39.101Z,49.50
2018-08-31T22:55:06.884Z,49.40
2018-08-31T22:57:34.364Z,49.40
2018-08-31T23:00:01.866Z,49.40
2018-08-31T23:02:29.400Z,49.40
2018-08-31T23:04:56.885Z,49.30
2018-08-31T23:07:29.941Z,49.30
2018-08-31T23:09:57.417Z,49.30
2018-08-31T23:12:24.909Z,49.30
2018-08-31T23:14:52.402Z,49.20
2018-08-31T23:17:25.334Z,49.20
2018-08-31T23:19:52.843Z,49.40
2018-08-31T23:22:20.361Z,49.20
2018-08-31T23:24:47.841Z,49.10
2018-08-31T23:27:15.349Z,49.10
2018-08-31T23:29:42.851Z,49.10
2018-08-31T23:32:10.337Z,49.10
2018-08-31T23:34:37.850Z,49.10
2018-08-31T23:37:05.333Z,49.10
2018-08-31T23:39:32.821Z,49.10
2018-08-31T23:42:00.300Z,49.10
2018-08-31T23:44:27.789Z,49.10
2018-08-31T23:46:55.267Z,49.10
2018-08-31T23:49:22.781Z,49.10
2018-08-31T23:51:50.276Z,49.70
2018-08-31T23:54:17.830Z,49.00
2018-08-31T23:56:45.328Z,49.00
2018-08-31T23:59:12.821Z,49.00
